createdAt,value
2017-01-31T00:02:46.067Z,1.55
2017-01-31T00:05:39.556Z,1.56
2017-01-31T00:08:33.037Z,1.57
2017-01-31T00:11:26.502Z,1.56
2017-01-31T00:14:19.971Z,1.55
2017-01-31T00:17:13.411Z,1.57
2017-01-31T00:20:06.949Z,1.58
2017-01-31T00:23:00.414Z,1.60
2017-01-31T00:25:53.905Z,1.60
2017-01-31T00:28:47.500Z,1.60
2017-01-31T00:34:34.690Z,1.61
2017-01-31T00:37:28.223Z,1.59
2017-01-31T00:40:21.681Z,1.61
2017-01-31T00:43:15.117Z,1.59
2017-01-31T00:49:02.196Z,1.56
2017-01-31T00:51:55.665Z,1.55
2017-01-31T00:54:50.351Z,1.56
2017-01-31T00:57:42.715Z,1.56
2017-01-31T01:03:29.778Z,1.56
2017-01-31T01:06:23.357Z,1.56
2017-01-31T01:09:16.753Z,1.56
2017-01-31T01:12:10.337Z,1.56
2017-01-31T01:15:03.941Z,1.56
2017-01-31T01:17:58.447Z,1.55
2017-01-31T01:23:44.441Z,1.54
2017-01-31T01:26:38.014Z,1.54
2017-01-31T01:35:18.453Z,1.55
2017-01-31T01:38:13.072Z,1.56
2017-01-31T01:41:06.486Z,1.57
2017-01-31T01:43:59.054Z,1.60
2017-01-31T01:46:52.627Z,1.61
2017-01-31T01:49:46.237Z,1.62
2017-01-31T01:52:40.783Z,1.62
2017-01-31T02:07:08.692Z,1.64
2017-01-31T02:10:01.233Z,1.64
2017-01-31T02:18:41.845Z,1.65
2017-01-31T02:21:35.439Z,1.64
2017-01-31T02:24:28.961Z,1.67
2017-01-31T02:27:22.538Z,1.67
2017-01-31T02:33:09.643Z,1.67
2017-01-31T02:36:03.233Z,1.66
2017-01-31T02:38:56.799Z,1.68
2017-01-31T02:50:31.023Z,1.63
2017-01-31T02:59:11.647Z,1.65
2017-01-31T03:02:05.393Z,1.66
2017-01-31T03:07:53.537Z,1.64
2017-01-31T03:10:45.996Z,1.64
2017-01-31T03:13:39.560Z,1.65
2017-01-31T03:16:33.018Z,1.65
2017-01-31T03:19:26.485Z,1.65
2017-01-31T03:22:19.924Z,1.66
2017-01-31T03:25:13.517Z,1.65
2017-01-31T03:28:07.021Z,1.65
2017-01-31T03:31:00.558Z,1.61
2017-01-31T03:36:47.574Z,1.55
2017-01-31T03:39:41.114Z,1.54
2017-01-31T03:42:34.687Z,1.53
2017-01-31T03:45:28.153Z,1.50
2017-01-31T03:51:15.683Z,1.51
2017-01-31T03:54:09.117Z,1.51
2017-01-31T03:57:02.687Z,1.50
2017-01-31T03:59:56.218Z,1.50
2017-01-31T04:02:50.847Z,1.51
2017-01-31T04:05:43.411Z,1.52
2017-01-31T04:08:37.121Z,1.53
2017-01-31T04:11:30.660Z,1.56
2017-01-31T04:14:24.135Z,1.58
2017-01-31T04:17:17.576Z,1.58
2017-01-31T04:23:04.518Z,1.59
2017-01-31T04:25:58.131Z,1.58
2017-01-31T04:28:51.741Z,1.59
2017-01-31T04:31:45.327Z,1.62
2017-01-31T04:34:38.908Z,1.62
2017-01-31T04:37:32.359Z,1.61
2017-01-31T04:40:25.946Z,1.62
2017-01-31T04:43:19.465Z,1.61
2017-01-31T04:49:06.643Z,1.62
2017-01-31T04:52:00.273Z,1.65
2017-01-31T04:54:53.793Z,1.68
2017-01-31T04:57:47.344Z,1.69
2017-01-31T05:00:40.770Z,1.66
2017-01-31T05:03:34.296Z,1.66
2017-01-31T05:06:27.737Z,1.62
2017-01-31T05:12:14.889Z,1.61
2017-01-31T05:15:08.514Z,1.62
2017-01-31T05:18:02.739Z,1.64
2017-01-31T05:26:43.946Z,1.69
2017-01-31T05:29:37.548Z,1.71
2017-01-31T05:41:11.777Z,1.65
2017-01-31T05:44:05.295Z,1.63
2017-01-31T05:46:58.832Z,1.65
2017-01-31T05:52:45.935Z,1.66
2017-01-31T05:55:39.552Z,1.62
2017-01-31T06:04:20.327Z,1.63
2017-01-31T06:13:00.932Z,1.56
2017-01-31T06:18:47.958Z,1.55
2017-01-31T06:21:41.440Z,1.59
2017-01-31T06:24:35.107Z,1.59
2017-01-31T06:27:29.539Z,1.57
2017-01-31T06:33:15.534Z,1.54
2017-01-31T06:39:02.728Z,1.55
2017-01-31T06:44:49.842Z,1.54
2017-01-31T06:47:43.359Z,1.54
2017-01-31T06:59:17.393Z,1.52
2017-01-31T07:05:04.545Z,1.50
2017-01-31T07:10:52.664Z,1.50
2017-01-31T07:16:39.962Z,1.53
2017-01-31T07:19:32.533Z,1.55
2017-01-31T07:28:13.334Z,1.54
2017-01-31T07:31:08.954Z,1.55
2017-01-31T07:34:00.375Z,1.55
2017-01-31T07:36:53.985Z,1.57
2017-01-31T07:42:42.100Z,1.64
2017-01-31T07:45:34.686Z,1.63
2017-01-31T07:48:28.356Z,1.62
2017-01-31T07:51:21.930Z,1.65
2017-01-31T07:54:15.535Z,1.68
2017-01-31T08:00:02.701Z,1.66
2017-01-31T08:05:50.679Z,1.59
2017-01-31T08:11:36.699Z,1.63
2017-01-31T08:14:30.251Z,1.64
2017-01-31T08:17:23.866Z,1.64
2017-01-31T08:20:17.371Z,1.59
2017-01-31T08:23:11.203Z,1.56
2017-01-31T08:26:05.227Z,1.54
2017-01-31T08:31:53.346Z,1.56
2017-01-31T08:34:45.988Z,1.52
2017-01-31T08:37:39.437Z,1.50
2017-01-31T08:43:26.405Z,1.50
2017-01-31T08:46:19.714Z,1.50
2017-01-31T08:52:06.798Z,1.55
2017-01-31T08:55:00.288Z,1.55
2017-01-31T09:00:48.296Z,1.56
2017-01-31T09:03:40.836Z,1.53
2017-01-31T09:06:34.475Z,1.51
2017-01-31T09:15:14.846Z,1.50
2017-01-31T09:23:56.891Z,1.56
2017-01-31T09:26:49.355Z,1.59
2017-01-31T09:29:43.201Z,1.56
2017-01-31T09:32:36.628Z,1.59
2017-01-31T09:35:30.359Z,1.67
2017-01-31T09:38:23.471Z,1.66
2017-01-31T09:41:16.973Z,1.71
2017-01-31T09:44:10.631Z,1.70
2017-01-31T09:49:57.327Z,1.68
2017-01-31T09:52:50.772Z,1.70
2017-01-31T09:58:37.850Z,1.61
2017-01-31T10:01:31.247Z,1.51
2017-01-31T10:07:18.620Z,1.54
2017-01-31T10:10:12.012Z,1.57
2017-01-31T10:15:58.999Z,1.61
2017-01-31T10:21:45.993Z,1.60
2017-01-31T10:24:39.475Z,1.63
2017-01-31T10:27:33.956Z,1.63
2017-01-31T10:30:26.439Z,1.65
2017-01-31T10:42:00.244Z,1.79
2017-01-31T10:44:53.788Z,1.81
2017-01-31T10:47:47.185Z,1.80
2017-01-31T10:50:40.650Z,1.81
2017-01-31T10:53:35.246Z,1.85
2017-01-31T10:56:27.671Z,1.88
2017-01-31T10:59:21.122Z,1.93
2017-01-31T11:05:08.096Z,1.99
2017-01-31T11:08:02.658Z,2.00
2017-01-31T11:13:48.534Z,1.90
2017-01-31T11:16:41.958Z,1.88
2017-01-31T11:22:28.949Z,1.97
2017-01-31T11:25:22.408Z,2.01
2017-01-31T11:28:15.862Z,2.04
2017-01-31T11:31:09.958Z,2.09
2017-01-31T11:34:03.311Z,2.12
2017-01-31T11:36:56.746Z,2.08
2017-01-31T11:39:50.171Z,2.04
2017-01-31T11:42:43.594Z,2.06
2017-01-31T11:48:31.559Z,2.10
2017-01-31T11:51:24.080Z,2.10
2017-01-31T11:54:18.038Z,2.13
2017-01-31T12:02:58.355Z,2.15
2017-01-31T12:05:51.805Z,2.02
2017-01-31T12:11:38.662Z,2.05
2017-01-31T12:14:33.029Z,2.11
2017-01-31T12:17:25.583Z,2.05
2017-01-31T12:20:19.051Z,2.03
2017-01-31T12:31:53.280Z,1.96
2017-01-31T12:34:46.785Z,1.98
2017-01-31T12:40:33.827Z,2.04
2017-01-31T12:46:20.507Z,2.07
2017-01-31T12:49:13.975Z,2.13
2017-01-31T12:55:00.750Z,2.19
2017-01-31T12:57:54.103Z,2.24
2017-01-31T13:03:40.959Z,2.29
2017-01-31T13:06:34.324Z,2.23
2017-01-31T13:09:28.379Z,2.25
2017-01-31T13:12:22.707Z,2.29
2017-01-31T13:18:08.939Z,2.26
2017-01-31T13:21:02.417Z,2.26
2017-01-31T13:23:55.908Z,2.23
2017-01-31T13:26:49.476Z,2.28
2017-01-31T13:32:37.519Z,2.27
2017-01-31T13:35:31.071Z,2.28
2017-01-31T13:38:24.573Z,2.25
2017-01-31T13:41:18.995Z,2.22
2017-01-31T13:44:11.492Z,2.16
2017-01-31T13:47:04.958Z,2.18
2017-01-31T13:52:51.964Z,2.20
2017-01-31T13:55:45.452Z,2.18
2017-01-31T13:58:39.495Z,2.10
2017-01-31T14:01:32.983Z,2.05
2017-01-31T14:04:27.406Z,2.03
2017-01-31T14:07:19.796Z,1.91
2017-01-31T14:13:06.732Z,2.03
2017-01-31T14:16:00.159Z,2.08
2017-01-31T14:18:53.542Z,2.13
2017-01-31T14:21:47.211Z,2.18
2017-01-31T14:24:40.659Z,2.22
2017-01-31T14:27:34.191Z,2.27
2017-01-31T14:30:28.176Z,2.30
2017-01-31T14:33:21.784Z,2.31
2017-01-31T14:36:15.327Z,2.31
2017-01-31T14:39:08.732Z,2.26
2017-01-31T14:42:02.202Z,2.27
2017-01-31T14:44:55.673Z,2.32
2017-01-31T14:47:49.256Z,2.34
2017-01-31T14:50:43.931Z,2.35
2017-01-31T14:53:37.305Z,2.36
2017-01-31T14:56:29.727Z,2.30
2017-01-31T14:59:23.200Z,2.31
2017-01-31T15:02:16.683Z,2.27
2017-01-31T15:05:10.728Z,2.27
2017-01-31T15:08:04.409Z,2.30
2017-01-31T15:10:57.895Z,2.29
2017-01-31T15:19:39.228Z,2.22
2017-01-31T15:22:31.800Z,2.25
2017-01-31T15:25:25.300Z,2.24
2017-01-31T15:28:19.151Z,2.21
2017-01-31T15:31:13.202Z,2.19
2017-01-31T15:34:06.718Z,2.17
2017-01-31T15:39:53.634Z,2.14
2017-01-31T15:42:47.677Z,2.15
2017-01-31T15:45:41.157Z,2.01
2017-01-31T15:51:27.835Z,1.98
2017-01-31T15:57:14.660Z,1.96
2017-01-31T16:00:08.056Z,1.88
2017-01-31T16:08:48.523Z,1.86
2017-01-31T16:20:24.197Z,1.85
2017-01-31T16:26:10.161Z,1.81
2017-01-31T16:31:58.059Z,1.81
2017-01-31T16:34:50.524Z,1.78
2017-01-31T16:37:43.921Z,1.80
2017-01-31T16:40:37.285Z,1.81
2017-01-31T16:46:24.028Z,1.70
2017-01-31T16:52:10.590Z,1.71
2017-01-31T16:55:05.023Z,1.72
2017-01-31T16:57:58.559Z,1.72
2017-01-31T17:03:44.456Z,1.80
2017-01-31T17:06:37.738Z,1.81
2017-01-31T17:12:24.432Z,1.73
2017-01-31T17:18:11.055Z,1.73
2017-01-31T17:21:04.380Z,1.73
2017-01-31T17:26:50.946Z,1.67
2017-01-31T17:29:44.347Z,1.71
2017-01-31T17:35:31.470Z,1.67
2017-01-31T17:38:25.760Z,1.66
2017-01-31T17:41:18.293Z,1.64
2017-01-31T17:44:11.714Z,1.65
2017-01-31T17:47:05.169Z,1.66
2017-01-31T17:49:58.538Z,1.63
2017-01-31T17:52:51.990Z,1.65
2017-01-31T17:55:45.337Z,1.64
2017-01-31T17:58:38.633Z,1.65
2017-01-31T18:04:25.525Z,1.72
2017-01-31T18:07:19.020Z,1.75
2017-01-31T18:13:05.787Z,1.70
2017-01-31T18:21:46.061Z,1.74
2017-01-31T18:24:39.384Z,1.77
2017-01-31T18:27:32.716Z,1.81
2017-01-31T18:30:26.008Z,1.86
2017-01-31T18:33:20.431Z,1.79
2017-01-31T18:36:12.764Z,1.75
2017-01-31T18:39:06.197Z,1.71
2017-01-31T18:41:59.925Z,1.74
2017-01-31T18:44:53.405Z,1.75
2017-01-31T18:47:46.902Z,1.76
2017-01-31T18:53:33.685Z,1.80
2017-01-31T18:56:27.000Z,1.80
2017-01-31T19:10:54.468Z,1.80
2017-01-31T19:13:47.704Z,1.75
2017-01-31T19:16:41.286Z,1.79
2017-01-31T19:19:34.575Z,1.83
2017-01-31T19:22:28.967Z,1.85
2017-01-31T19:25:22.499Z,1.87
2017-01-31T19:28:15.021Z,1.90
2017-01-31T19:34:01.992Z,1.85
2017-01-31T19:36:55.291Z,1.87
2017-01-31T19:42:42.514Z,1.91
2017-01-31T19:45:35.974Z,1.85
2017-01-31T19:48:29.491Z,1.81
2017-01-31T19:54:16.301Z,1.80
2017-01-31T20:00:03.015Z,1.78
2017-01-31T20:02:56.354Z,1.78
2017-01-31T20:11:36.479Z,1.85
2017-01-31T20:14:29.861Z,1.82
2017-01-31T20:17:23.506Z,1.78
2017-01-31T20:20:16.895Z,1.77
2017-01-31T20:23:11.344Z,1.78
2017-01-31T20:26:03.772Z,1.78
2017-01-31T20:28:57.095Z,1.76
2017-01-31T20:31:50.611Z,1.78
2017-01-31T20:34:44.093Z,1.79
2017-01-31T20:40:30.932Z,1.80
2017-01-31T20:46:17.916Z,1.82
2017-01-31T20:49:11.962Z,1.85
2017-01-31T20:54:58.723Z,1.94
2017-01-31T20:57:52.115Z,1.98
2017-01-31T21:06:32.248Z,2.08
2017-01-31T21:09:25.898Z,2.11
2017-01-31T21:15:13.638Z,2.13
2017-01-31T21:20:59.642Z,2.13
2017-01-31T21:23:53.118Z,2.13
2017-01-31T21:26:46.661Z,2.15
2017-01-31T21:32:33.643Z,2.20
2017-01-31T21:35:27.593Z,2.19
2017-01-31T21:38:21.116Z,2.18
2017-01-31T21:41:14.522Z,2.14
2017-01-31T21:47:01.394Z,2.18
2017-01-31T21:49:54.735Z,2.17
2017-01-31T21:52:48.168Z,2.16
2017-01-31T21:58:35.295Z,2.17
2017-01-31T22:01:28.767Z,2.19
2017-01-31T22:04:22.265Z,2.18
2017-01-31T22:10:09.267Z,2.15
2017-01-31T22:13:03.111Z,2.14
2017-01-31T22:15:56.508Z,2.07
2017-01-31T22:18:49.978Z,2.07
2017-01-31T22:24:36.757Z,2.09
2017-01-31T22:27:30.301Z,2.13
2017-01-31T22:33:18.268Z,2.14
2017-01-31T22:39:04.937Z,2.16
2017-01-31T22:44:52.021Z,2.17
2017-01-31T22:50:39.911Z,2.16
2017-01-31T22:59:19.430Z,2.07
2017-01-31T23:02:12.878Z,2.08
2017-01-31T23:05:06.426Z,2.06
2017-01-31T23:07:59.858Z,2.00
2017-01-31T23:10:53.343Z,2.04
2017-01-31T23:22:27.328Z,2.10
2017-01-31T23:25:20.902Z,2.10
2017-01-31T23:28:14.498Z,2.15
2017-01-31T23:34:01.588Z,2.19
2017-01-31T23:39:48.566Z,2.22
2017-01-31T23:42:42.093Z,2.23
2017-01-31T23:45:35.601Z,2.20
2017-01-31T23:48:29.085Z,2.18
2017-01-31T23:54:16.081Z,2.20
2017-01-31T23:57:09.571Z,2.21
